createdAt,value
2023-05-09T00:01:20.725Z,101851.22
2023-05-09T00:03:47.743Z,101841.91
2023-05-09T00:06:15.439Z,101843.59
2023-05-09T00:08:41.965Z,101847.19
2023-05-09T00:11:08.438Z,101845.31
2023-05-09T00:13:34.875Z,101843.00
2023-05-09T00:16:01.395Z,101836.00
2023-05-09T00:18:28.498Z,101837.94
2023-05-09T00:20:55.019Z,101832.66
2023-05-09T00:23:21.464Z,101837.53
2023-05-09T00:25:48.039Z,101835.69
2023-05-09T00:28:14.544Z,101828.06
2023-05-09T00:30:41.020Z,101822.69
2023-05-09T00:33:07.542Z,101821.50
2023-05-09T00:35:34.893Z,101810.91
2023-05-09T00:38:01.460Z,101811.72
2023-05-09T00:40:27.945Z,101795.63
2023-05-09T00:42:55.999Z,101804.03
2023-05-09T00:45:22.493Z,101804.78
2023-05-09T00:47:48.978Z,101805.28
2023-05-09T00:50:15.516Z,101803.69
2023-05-09T00:52:42.028Z,101805.78
2023-05-09T00:55:08.954Z,101803.59
2023-05-09T00:57:36.207Z,101797.44
2023-05-09T01:00:04.460Z,101803.81
2023-05-09T01:02:32.196Z,101797.63
2023-05-09T01:04:59.009Z,101787.91
2023-05-09T01:07:36.624Z,101787.03
2023-05-09T01:10:14.264Z,101787.13
2023-05-09T01:13:05.076Z,101779.63
2023-05-09T01:16:23.721Z,101770.34
2023-05-09T01:18:56.597Z,101771.94
2023-05-09T01:21:30.739Z,101761.69
2023-05-09T01:24:12.712Z,101763.56
2023-05-09T01:26:48.003Z,101766.47
2023-05-09T01:29:35.399Z,101757.00
2023-05-09T01:32:10.105Z,101753.84
2023-05-09T01:34:38.699Z,101750.63
2023-05-09T01:37:05.804Z,101743.59
2023-05-09T01:39:34.201Z,101746.00
2023-05-09T01:42:03.476Z,101738.81
2023-05-09T01:44:33.897Z,101748.81
2023-05-09T01:47:01.287Z,101741.50
2023-05-09T01:49:29.707Z,101748.59
2023-05-09T01:51:56.544Z,101743.06
2023-05-09T01:54:23.498Z,101735.13
2023-05-09T01:56:50.201Z,101741.63
2023-05-09T01:59:17.610Z,101736.94
2023-05-09T02:01:45.731Z,101735.47
2023-05-09T02:04:13.967Z,101736.38
2023-05-09T02:06:40.814Z,101743.16
2023-05-09T02:09:08.433Z,101746.13
2023-05-09T02:11:34.896Z,101741.94
2023-05-09T02:14:01.388Z,101752.38
2023-05-09T02:16:28.031Z,101735.38
2023-05-09T02:18:54.541Z,101748.34
2023-05-09T02:21:21.065Z,101743.66
2023-05-09T02:23:47.715Z,101737.84
2023-05-09T02:26:14.339Z,101741.28
2023-05-09T02:28:41.800Z,101737.19
2023-05-09T02:31:08.490Z,101736.75
2023-05-09T02:33:36.188Z,101738.19
2023-05-09T02:36:02.783Z,101734.84
2023-05-09T02:38:29.238Z,101734.56
2023-05-09T02:40:55.831Z,101727.88
2023-05-09T02:43:22.592Z,101720.44
2023-05-09T02:45:49.088Z,101731.50
2023-05-09T02:48:15.654Z,101735.28
2023-05-09T02:50:43.442Z,101721.06
2023-05-09T02:53:10.041Z,101721.63
2023-05-09T02:55:36.555Z,101708.31
2023-05-09T02:58:13.472Z,101709.81
2023-05-09T03:00:41.023Z,101704.38
2023-05-09T03:03:07.631Z,101702.59
2023-05-09T03:05:34.213Z,101695.09
2023-05-09T03:08:00.703Z,101698.53
2023-05-09T03:10:27.207Z,101701.16
2023-05-09T03:12:53.740Z,101693.09
2023-05-09T03:15:20.960Z,101687.53
2023-05-09T03:17:47.790Z,101682.16
2023-05-09T03:20:15.023Z,101683.31
2023-05-09T03:22:41.582Z,101680.47
2023-05-09T03:25:08.213Z,101686.56
2023-05-09T03:27:36.726Z,101677.47
2023-05-09T03:30:03.390Z,101668.69
2023-05-09T03:32:30.013Z,101670.28
2023-05-09T03:34:57.272Z,101673.03
2023-05-09T03:37:26.227Z,101664.63
2023-05-09T03:39:53.497Z,101669.06
2023-05-09T03:42:20.109Z,101662.75
2023-05-09T03:44:46.659Z,101661.69
2023-05-09T03:47:13.172Z,101658.59
2023-05-09T03:49:39.627Z,101659.13
2023-05-09T03:52:06.120Z,101665.22
2023-05-09T03:54:32.586Z,101658.47
2023-05-09T03:56:59.107Z,101658.31
2023-05-09T03:59:25.583Z,101659.16
2023-05-09T04:01:52.121Z,101661.22
2023-05-09T04:04:18.594Z,101655.13
2023-05-09T04:06:45.106Z,101653.03
2023-05-09T04:09:11.564Z,101666.19
2023-05-09T04:11:38.145Z,101658.31
2023-05-09T04:14:07.241Z,101656.00
2023-05-09T04:16:33.908Z,101657.16
2023-05-09T04:19:00.471Z,101651.06
2023-05-09T04:21:26.981Z,101657.53
2023-05-09T04:23:53.533Z,101649.34
2023-05-09T04:26:21.894Z,101656.00
2023-05-09T04:28:48.376Z,101645.94
2023-05-09T04:31:15.052Z,101648.44
2023-05-09T04:33:41.611Z,101645.72
2023-05-09T04:36:08.450Z,101643.09
2023-05-09T04:38:35.270Z,101643.84
2023-05-09T04:41:01.821Z,101641.28
2023-05-09T04:43:28.421Z,101637.22
2023-05-09T04:45:54.911Z,101631.13
2023-05-09T04:48:21.417Z,101623.88
2023-05-09T04:50:48.644Z,101634.78
2023-05-09T04:53:15.190Z,101629.56
2023-05-09T04:55:41.630Z,101624.25
2023-05-09T04:58:09.268Z,101634.09
2023-05-09T05:00:35.883Z,101629.56
2023-05-09T05:03:02.460Z,101630.63
2023-05-09T05:05:29.073Z,101623.00
2023-05-09T05:07:55.783Z,101627.50
2023-05-09T05:10:22.242Z,101631.28
2023-05-09T05:12:48.797Z,101619.09
2023-05-09T05:15:15.581Z,101616.22
2023-05-09T05:17:42.319Z,101626.25
2023-05-09T05:20:10.619Z,101617.22
2023-05-09T05:22:37.114Z,101627.72
2023-05-09T05:25:04.529Z,101619.78
2023-05-09T05:27:31.534Z,101621.94
2023-05-09T05:29:58.091Z,101615.41
2023-05-09T05:32:24.629Z,101609.75
2023-05-09T05:34:51.152Z,101609.34
2023-05-09T05:37:17.602Z,101602.13
2023-05-09T05:39:44.060Z,101600.72
2023-05-09T05:42:10.608Z,101592.34
2023-05-09T05:44:37.082Z,101587.81
2023-05-09T05:47:03.557Z,101582.06
2023-05-09T05:49:30.072Z,101583.72
2023-05-09T05:51:56.514Z,101578.81
2023-05-09T05:54:23.002Z,101579.84
2023-05-09T05:56:49.475Z,101572.59
2023-05-09T05:59:16.295Z,101577.09
2023-05-09T06:01:42.857Z,101579.09
2023-05-09T06:04:09.411Z,101578.69
2023-05-09T06:06:35.943Z,101576.88
2023-05-09T06:09:02.548Z,101578.72
2023-05-09T06:11:28.987Z,101575.38
2023-05-09T06:13:55.532Z,101570.78
2023-05-09T06:16:22.104Z,101566.38
2023-05-09T06:18:48.731Z,101558.84
2023-05-09T06:21:15.214Z,101555.66
2023-05-09T06:23:56.957Z,101545.75
2023-05-09T06:26:23.985Z,101552.06
2023-05-09T06:28:50.440Z,101542.09
2023-05-09T06:31:16.944Z,101542.00
2023-05-09T06:33:43.459Z,101541.53
2023-05-09T06:36:10.006Z,101540.16
2023-05-09T06:38:36.486Z,101536.94
2023-05-09T06:41:02.965Z,101536.53
2023-05-09T06:43:29.488Z,101539.81
2023-05-09T06:45:55.981Z,101537.94
2023-05-09T06:48:24.020Z,101530.44
2023-05-09T06:50:50.732Z,101519.75
2023-05-09T06:53:17.257Z,101505.81
2023-05-09T06:55:44.135Z,101497.84
2023-05-09T06:58:11.281Z,101496.09
2023-05-09T07:00:38.089Z,101494.72
2023-05-09T07:03:04.622Z,101491.91
2023-05-09T07:05:31.185Z,101488.50
2023-05-09T07:07:57.847Z,101491.72
2023-05-09T07:10:24.532Z,101481.59
2023-05-09T07:12:51.084Z,101480.72
2023-05-09T07:15:28.763Z,101477.44
2023-05-09T07:18:03.666Z,101475.00
2023-05-09T07:20:30.210Z,101475.88
2023-05-09T07:22:58.433Z,101474.06
2023-05-09T07:25:24.961Z,101484.59
2023-05-09T07:27:51.499Z,101477.59
2023-05-09T07:30:18.047Z,101478.47
2023-05-09T07:32:44.563Z,101472.34
2023-05-09T07:35:11.171Z,101466.19
2023-05-09T07:37:37.597Z,101462.72
2023-05-09T07:40:06.167Z,101448.56
2023-05-09T07:42:33.143Z,101457.47
2023-05-09T07:45:00.365Z,101443.41
2023-05-09T07:47:26.970Z,101435.50
2023-05-09T07:49:53.431Z,101442.47
2023-05-09T07:52:19.923Z,101440.66
2023-05-09T07:54:46.469Z,101427.41
2023-05-09T07:57:13.031Z,101421.28
2023-05-09T07:59:39.530Z,101428.28
2023-05-09T08:02:06.520Z,101411.16
2023-05-09T08:04:33.105Z,101419.06
2023-05-09T08:06:59.669Z,101410.63
2023-05-09T08:09:26.661Z,101398.75
2023-05-09T08:11:53.179Z,101406.53
2023-05-09T08:14:19.642Z,101408.75
2023-05-09T08:16:46.086Z,101402.13
2023-05-09T08:19:13.183Z,101395.75
2023-05-09T08:21:39.675Z,101389.94
2023-05-09T08:24:08.060Z,101376.91
2023-05-09T08:26:35.257Z,101385.03
2023-05-09T08:29:01.895Z,101381.78
2023-05-09T08:31:28.460Z,101382.41
2023-05-09T08:33:54.982Z,101384.00
2023-05-09T08:36:21.508Z,101378.19
2023-05-09T08:38:47.942Z,101380.25
2023-05-09T08:41:14.609Z,101384.22
2023-05-09T08:43:41.702Z,101379.53
2023-05-09T08:46:10.065Z,101378.63
2023-05-09T08:48:39.441Z,101366.78
2023-05-09T08:51:06.777Z,101366.38
2023-05-09T08:53:34.378Z,101367.56
2023-05-09T08:56:03.772Z,101354.94
2023-05-09T08:58:31.359Z,101361.47
2023-05-09T09:00:59.060Z,101353.63
2023-05-09T09:03:26.326Z,101350.63
2023-05-09T09:05:54.496Z,101354.59
2023-05-09T09:08:22.365Z,101350.63
2023-05-09T09:10:49.025Z,101343.44
2023-05-09T09:13:17.528Z,101336.28
2023-05-09T09:15:46.003Z,101329.50
2023-05-09T09:18:16.866Z,101343.88
2023-05-09T09:20:50.142Z,101341.22
2023-05-09T09:23:21.094Z,101337.81
2023-05-09T09:25:48.115Z,101336.34
2023-05-09T09:28:15.067Z,101332.88
2023-05-09T09:30:47.548Z,101334.53
2023-05-09T09:33:21.627Z,101323.94
2023-05-09T09:35:52.429Z,101322.03
2023-05-09T09:38:19.807Z,101326.03
2023-05-09T09:41:04.450Z,101322.56
2023-05-09T09:43:31.977Z,101316.25
2023-05-09T09:46:02.632Z,101308.69
2023-05-09T09:48:35.870Z,101307.22
2023-05-09T09:51:08.364Z,101310.97
2023-05-09T09:53:39.779Z,101299.53
2023-05-09T09:56:06.581Z,101305.16
2023-05-09T09:58:33.085Z,101293.72
2023-05-09T10:01:10.597Z,101297.09
2023-05-09T10:03:42.218Z,101288.69
2023-05-09T10:06:14.106Z,101291.13
2023-05-09T10:08:41.241Z,101282.25
2023-05-09T10:11:07.850Z,101292.41
2023-05-09T10:13:38.441Z,101279.78
2023-05-09T10:16:06.406Z,101276.94
2023-05-09T10:18:33.964Z,101275.97
2023-05-09T10:21:05.201Z,101281.50
2023-05-09T10:23:33.209Z,101274.41
2023-05-09T10:26:16.938Z,101274.63
2023-05-09T10:28:45.980Z,101263.91
2023-05-09T10:31:16.266Z,101255.56
2023-05-09T10:33:47.500Z,101258.66
2023-05-09T10:36:17.693Z,101252.28
2023-05-09T10:38:44.281Z,101239.56
2023-05-09T10:41:12.221Z,101234.63
2023-05-09T10:43:39.010Z,101238.78
2023-05-09T10:46:06.262Z,101222.50
2023-05-09T10:48:33.445Z,101211.59
2023-05-09T10:51:03.674Z,101218.69
2023-05-09T10:53:44.562Z,101217.06
2023-05-09T10:56:39.887Z,101208.97
2023-05-09T10:59:06.505Z,101220.19
2023-05-09T11:01:39.246Z,101218.59
2023-05-09T11:04:14.556Z,101198.69
2023-05-09T11:06:45.530Z,101192.56
2023-05-09T11:09:38.907Z,101187.47
2023-05-09T11:12:05.497Z,101181.22
2023-05-09T11:14:39.599Z,101179.28
2023-05-09T11:17:08.099Z,101178.75
2023-05-09T11:19:39.259Z,101171.13
2023-05-09T11:22:28.561Z,101169.81
2023-05-09T11:25:11.163Z,101168.41
2023-05-09T11:27:40.835Z,101161.47
2023-05-09T11:30:08.231Z,101151.50
2023-05-09T11:32:41.948Z,101168.84
2023-05-09T11:35:17.805Z,101145.97
2023-05-09T11:37:49.719Z,101140.50
2023-05-09T11:40:18.294Z,101125.34
2023-05-09T11:42:50.048Z,101132.97
2023-05-09T11:45:17.880Z,101127.75
2023-05-09T11:47:45.821Z,101124.44
2023-05-09T11:50:13.875Z,101131.00
2023-05-09T11:52:41.497Z,101118.31
2023-05-09T11:55:13.759Z,101117.63
2023-05-09T11:57:49.124Z,101122.84
2023-05-09T12:00:17.364Z,101109.06
2023-05-09T12:02:45.699Z,101104.22
2023-05-09T12:05:14.657Z,101100.84
2023-05-09T12:07:42.234Z,101104.47
2023-05-09T12:10:10.826Z,101102.44
2023-05-09T12:12:43.156Z,101106.03
2023-05-09T12:15:10.113Z,101099.94
2023-05-09T12:17:36.997Z,101098.63
2023-05-09T12:20:07.480Z,101091.50
2023-05-09T12:22:34.364Z,101079.50
2023-05-09T12:25:02.580Z,101075.16
2023-05-09T12:27:29.373Z,101076.06
2023-05-09T12:29:56.100Z,101076.50
2023-05-09T12:32:22.742Z,101076.16
2023-05-09T12:34:49.917Z,101070.31
2023-05-09T12:37:18.270Z,101074.69
2023-05-09T12:39:45.938Z,101081.25
2023-05-09T12:42:13.597Z,101082.88
2023-05-09T12:44:40.189Z,101061.94
2023-05-09T12:47:06.670Z,101080.44
2023-05-09T12:49:36.495Z,101076.72
2023-05-09T12:52:04.767Z,101078.53
2023-05-09T12:54:31.636Z,101080.38
2023-05-09T12:56:58.589Z,101075.34
2023-05-09T12:59:27.184Z,101082.75
2023-05-09T13:01:57.983Z,101089.38
2023-05-09T13:04:26.093Z,101083.72
2023-05-09T13:06:55.580Z,101068.16
2023-05-09T13:09:23.204Z,101069.50
2023-05-09T13:11:51.001Z,101067.75
2023-05-09T13:14:18.464Z,101057.22
2023-05-09T13:16:45.087Z,101064.25
2023-05-09T13:19:12.226Z,101048.81
2023-05-09T13:21:38.753Z,101049.28
2023-05-09T13:24:05.724Z,101053.88
2023-05-09T13:26:32.390Z,101048.47
2023-05-09T13:28:58.945Z,101043.16
2023-05-09T13:31:25.753Z,101037.75
2023-05-09T13:33:52.492Z,101032.47
2023-05-09T13:36:19.351Z,101035.84
2023-05-09T13:38:46.211Z,101039.75
2023-05-09T13:41:13.706Z,101039.13
2023-05-09T13:43:42.595Z,101034.06
2023-05-09T13:46:09.201Z,101023.50
2023-05-09T13:48:35.750Z,101029.44
2023-05-09T13:51:03.713Z,101024.84
2023-05-09T13:53:30.252Z,101016.44
2023-05-09T13:55:57.043Z,101010.94
2023-05-09T13:58:23.537Z,101014.22
2023-05-09T14:00:50.297Z,101011.16
2023-05-09T14:03:16.818Z,101015.06
2023-05-09T14:05:43.409Z,101004.72
2023-05-09T14:08:09.938Z,101002.34
2023-05-09T14:10:36.392Z,100991.88
2023-05-09T14:13:02.970Z,100992.88
2023-05-09T14:15:29.957Z,100997.00
2023-05-09T14:17:57.097Z,100985.28
2023-05-09T14:20:23.696Z,100986.88
2023-05-09T14:22:50.204Z,100981.22
2023-05-09T14:25:16.962Z,100983.91
2023-05-09T14:27:43.473Z,100971.47
2023-05-09T14:30:10.406Z,100978.56
2023-05-09T14:32:37.219Z,100960.06
2023-05-09T14:35:04.105Z,100971.31
2023-05-09T14:37:30.663Z,100954.94
2023-05-09T14:40:05.259Z,100959.38
2023-05-09T14:42:32.095Z,100946.91
2023-05-09T14:44:58.750Z,100945.81
2023-05-09T14:47:25.241Z,100947.47
2023-05-09T14:49:52.335Z,100941.28
2023-05-09T14:52:18.854Z,100937.81
2023-05-09T14:54:45.414Z,100939.22
2023-05-09T14:57:11.998Z,100935.31
2023-05-09T14:59:38.480Z,100935.66
2023-05-09T15:02:05.428Z,100931.25
2023-05-09T15:04:31.990Z,100930.97
2023-05-09T15:06:59.174Z,100927.19
2023-05-09T15:09:25.849Z,100921.75
2023-05-09T15:11:52.405Z,100915.34
2023-05-09T15:14:18.919Z,100917.47
2023-05-09T15:16:45.724Z,100922.75
2023-05-09T15:19:12.355Z,100913.63
2023-05-09T15:21:38.855Z,100902.31
2023-05-09T15:24:05.627Z,100905.63
2023-05-09T15:26:32.412Z,100898.47
2023-05-09T15:28:59.116Z,100904.97
2023-05-09T15:31:25.918Z,100900.03
2023-05-09T15:33:52.516Z,100906.38
2023-05-09T15:36:18.968Z,100885.38
2023-05-09T15:38:49.378Z,100892.84
2023-05-09T15:41:16.207Z,100886.63
2023-05-09T15:43:42.878Z,100872.72
2023-05-09T15:46:09.664Z,100872.22
2023-05-09T15:48:36.285Z,100872.91
2023-05-09T15:51:04.088Z,100864.72
2023-05-09T15:53:30.773Z,100864.13
2023-05-09T15:55:57.262Z,100860.34
2023-05-09T15:58:23.785Z,100858.88
2023-05-09T16:00:50.307Z,100860.06
2023-05-09T16:03:16.994Z,100849.19
2023-05-09T16:05:43.875Z,100846.34
2023-05-09T16:08:10.679Z,100855.94
2023-05-09T16:10:37.150Z,100851.00
2023-05-09T16:13:03.674Z,100854.97
2023-05-09T16:15:30.222Z,100844.34
2023-05-09T16:17:56.958Z,100847.03
2023-05-09T16:20:23.458Z,100843.03
2023-05-09T16:22:49.957Z,100842.03
2023-05-09T16:25:16.892Z,100833.59
2023-05-09T16:27:43.377Z,100830.50
2023-05-09T16:30:10.292Z,100817.75
2023-05-09T16:32:37.006Z,100831.56
2023-05-09T16:35:04.219Z,100832.69
2023-05-09T16:37:31.084Z,100816.91
2023-05-09T16:39:59.519Z,100812.78
2023-05-09T16:42:26.067Z,100814.53
2023-05-09T16:44:52.690Z,100820.34
2023-05-09T16:47:19.174Z,100823.59
2023-05-09T16:49:45.993Z,100812.09
2023-05-09T16:52:12.490Z,100813.50
2023-05-09T16:54:38.955Z,100809.09
2023-05-09T16:57:05.922Z,100807.19
2023-05-09T16:59:32.892Z,100810.03
2023-05-09T17:02:00.029Z,100796.19
2023-05-09T17:04:27.519Z,100790.63
2023-05-09T17:06:54.192Z,100794.81
2023-05-09T17:09:20.739Z,100793.09
2023-05-09T17:11:48.268Z,100794.72
2023-05-09T17:14:14.871Z,100785.28
2023-05-09T17:16:41.413Z,100802.84
2023-05-09T17:19:07.942Z,100804.47
2023-05-09T17:21:34.948Z,100793.56
2023-05-09T17:24:02.206Z,100798.59
2023-05-09T17:26:29.607Z,100787.06
2023-05-09T17:28:56.217Z,100784.66
2023-05-09T17:31:22.834Z,100784.34
2023-05-09T17:33:49.448Z,100790.34
2023-05-09T17:36:15.972Z,100786.81
2023-05-09T17:38:42.482Z,100780.91
2023-05-09T17:41:09.049Z,100776.09
2023-05-09T17:43:35.568Z,100779.66
2023-05-09T17:46:02.289Z,100788.59
2023-05-09T17:48:29.263Z,100787.72
2023-05-09T17:50:56.255Z,100779.69
2023-05-09T17:53:22.814Z,100780.84
2023-05-09T17:55:49.269Z,100782.13
2023-05-09T17:58:15.773Z,100779.97
2023-05-09T18:00:42.313Z,100779.03
2023-05-09T18:03:08.888Z,100772.38
2023-05-09T18:05:35.475Z,100771.03
2023-05-09T18:08:03.455Z,100781.22
2023-05-09T18:10:30.001Z,100778.50
2023-05-09T18:12:56.684Z,100776.34
2023-05-09T18:15:24.423Z,100780.47
2023-05-09T18:17:51.105Z,100779.06
2023-05-09T18:20:18.162Z,100777.22
2023-05-09T18:22:44.889Z,100779.91
2023-05-09T18:25:11.580Z,100775.81
2023-05-09T18:27:38.357Z,100775.72
2023-05-09T18:30:05.416Z,100777.81
2023-05-09T18:32:32.481Z,100784.88
2023-05-09T18:34:59.037Z,100781.44
2023-05-09T18:37:25.582Z,100781.94
2023-05-09T18:39:52.108Z,100784.13
2023-05-09T18:42:19.214Z,100779.28
2023-05-09T18:44:45.996Z,100778.59
2023-05-09T18:47:12.634Z,100773.94
2023-05-09T18:49:39.283Z,100766.09
2023-05-09T18:52:05.889Z,100770.44
2023-05-09T18:54:32.523Z,100774.50
2023-05-09T18:56:58.964Z,100770.28
2023-05-09T18:59:25.495Z,100761.22
2023-05-09T19:01:52.005Z,100768.97
2023-05-09T19:04:19.518Z,100763.03
2023-05-09T19:06:46.697Z,100764.38
2023-05-09T19:09:13.289Z,100769.47
2023-05-09T19:11:39.794Z,100756.81
2023-05-09T19:14:06.593Z,100759.22
2023-05-09T19:16:33.333Z,100760.13
2023-05-09T19:19:01.028Z,100771.59
2023-05-09T19:21:28.353Z,100769.13
2023-05-09T19:23:54.991Z,100772.75
2023-05-09T19:26:22.074Z,100769.66
2023-05-09T19:28:48.745Z,100770.31
2023-05-09T19:31:15.645Z,100763.19
2023-05-09T19:33:45.336Z,100766.13
2023-05-09T19:36:11.970Z,100766.09
2023-05-09T19:38:39.904Z,100763.81
2023-05-09T19:41:06.458Z,100766.78
2023-05-09T19:43:32.940Z,100771.72
2023-05-09T19:46:00.019Z,100757.34
2023-05-09T19:48:26.631Z,100755.78
2023-05-09T19:50:56.460Z,100763.56
2023-05-09T19:53:22.922Z,100764.81
2023-05-09T19:55:49.564Z,100768.66
2023-05-09T19:58:17.754Z,100757.28
2023-05-09T20:00:46.534Z,100758.13
2023-05-09T20:03:13.330Z,100760.69
2023-05-09T20:05:39.995Z,100761.88
2023-05-09T20:08:09.408Z,100759.22
2023-05-09T20:10:38.078Z,100754.84
2023-05-09T20:13:05.425Z,100761.34
2023-05-09T20:15:33.088Z,100757.13
2023-05-09T20:18:03.659Z,100762.97
2023-05-09T20:20:32.303Z,100755.09
2023-05-09T20:23:00.476Z,100748.69
2023-05-09T20:25:29.914Z,100745.06
2023-05-09T20:27:56.452Z,100743.31
2023-05-09T20:30:23.027Z,100739.78
2023-05-09T20:32:49.528Z,100741.00
2023-05-09T20:35:16.413Z,100738.66
2023-05-09T20:37:42.954Z,100739.22
2023-05-09T20:40:09.874Z,100740.78
2023-05-09T20:42:36.478Z,100732.03
2023-05-09T20:45:03.745Z,100740.78
2023-05-09T20:47:30.250Z,100734.81
2023-05-09T20:49:58.361Z,100734.66
2023-05-09T20:52:25.158Z,100731.81
2023-05-09T20:54:51.650Z,100731.81
2023-05-09T20:57:19.017Z,100736.06
2023-05-09T20:59:45.611Z,100730.41
2023-05-09T21:02:12.147Z,100734.06
2023-05-09T21:04:38.638Z,100732.78
2023-05-09T21:07:05.255Z,100722.59
2023-05-09T21:09:31.782Z,100724.53
2023-05-09T21:11:58.726Z,100723.22
2023-05-09T21:14:25.187Z,100723.09
2023-05-09T21:16:51.983Z,100722.25
2023-05-09T21:19:18.579Z,100718.06
2023-05-09T21:21:45.430Z,100719.22
2023-05-09T21:24:11.932Z,100720.88
2023-05-09T21:26:38.796Z,100711.72
2023-05-09T21:29:05.367Z,100709.50
2023-05-09T21:31:31.855Z,100720.16
2023-05-09T21:33:59.116Z,100709.75
2023-05-09T21:36:28.145Z,100708.56
2023-05-09T21:38:54.953Z,100707.16
2023-05-09T21:41:22.509Z,100712.31
2023-05-09T21:43:49.543Z,100702.69
2023-05-09T21:46:16.578Z,100698.25
2023-05-09T21:48:43.021Z,100699.31
2023-05-09T21:51:10.272Z,100704.47
2023-05-09T21:53:36.817Z,100699.09
2023-05-09T21:56:03.472Z,100689.03
2023-05-09T21:58:29.915Z,100693.28
2023-05-09T22:00:56.386Z,100698.53
2023-05-09T22:03:23.323Z,100688.59
2023-05-09T22:05:50.148Z,100700.25
2023-05-09T22:08:17.207Z,100687.53
2023-05-09T22:10:43.684Z,100684.28
2023-05-09T22:13:10.286Z,100680.03
2023-05-09T22:15:36.842Z,100682.75
2023-05-09T22:18:03.490Z,100673.03
2023-05-09T22:20:29.985Z,100674.75
2023-05-09T22:22:56.434Z,100678.28
2023-05-09T22:25:23.136Z,100683.03
2023-05-09T22:27:50.075Z,100679.97
2023-05-09T22:30:17.522Z,100675.50
2023-05-09T22:32:44.677Z,100669.53
2023-05-09T22:35:11.888Z,100669.91
2023-05-09T22:37:38.433Z,100671.53
2023-05-09T22:40:05.935Z,100673.38
2023-05-09T22:42:34.282Z,100672.16
2023-05-09T22:45:01.109Z,100679.56
2023-05-09T22:47:27.610Z,100663.13
2023-05-09T22:49:54.198Z,100668.44
2023-05-09T22:52:20.686Z,100666.44
2023-05-09T22:54:47.716Z,100663.16
2023-05-09T22:57:17.703Z,100654.16
2023-05-09T22:59:44.401Z,100657.63
2023-05-09T23:02:10.902Z,100662.78
2023-05-09T23:04:37.401Z,100657.38
2023-05-09T23:07:03.872Z,100664.75
2023-05-09T23:09:31.484Z,100658.97
2023-05-09T23:11:59.548Z,100657.94
2023-05-09T23:14:26.017Z,100657.78
2023-05-09T23:16:52.527Z,100650.78
2023-05-09T23:19:19.768Z,100653.88
2023-05-09T23:21:46.225Z,100654.22
2023-05-09T23:24:12.726Z,100648.16
2023-05-09T23:26:39.198Z,100647.53
2023-05-09T23:29:05.752Z,100647.47
2023-05-09T23:31:32.284Z,100645.69
2023-05-09T23:33:58.805Z,100641.13
2023-05-09T23:36:25.410Z,100638.16
2023-05-09T23:38:51.905Z,100631.69
2023-05-09T23:41:18.544Z,100637.16
2023-05-09T23:43:45.077Z,100633.31
2023-05-09T23:46:11.539Z,100629.06
2023-05-09T23:48:38.052Z,100629.97
2023-05-09T23:51:04.667Z,100625.06
2023-05-09T23:53:34.939Z,100623.09
2023-05-09T23:56:02.571Z,100622.41
2023-05-09T23:58:29.087Z,100628.63
